sensor_id;sensor_type;location;lat;lon;timestamp;temperature;humidity
29453;DHT22;16424;50.956;5.320;2023-03-02T00:04:13;1.90;99.90
29453;DHT22;16424;50.956;5.320;2023-03-02T00:06:42;1.80;99.90
29453;DHT22;16424;50.956;5.320;2023-03-02T00:09:08;1.80;99.90
29453;DHT22;16424;50.956;5.320;2023-03-02T00:11:35;1.80;99.90
29453;DHT22;16424;50.956;5.320;2023-03-02T00:14:02;1.80;99.90
29453;DHT22;16424;50.956;5.320;2023-03-02T00:16:28;1.90;99.90
29453;DHT22;16424;50.956;5.320;2023-03-02T00:18:53;1.90;99.90
29453;DHT22;16424;50.956;5.320;2023-03-02T00:21:19;2.00;99.90
29453;DHT22;16424;50.956;5.320;2023-03-02T00:23:44;2.00;99.90
29453;DHT22;16424;50.956;5.320;2023-03-02T00:26:10;1.90;99.90
29453;DHT22;16424;50.956;5.320;2023-03-02T00:28:36;1.90;99.90
29453;DHT22;16424;50.956;5.320;2023-03-02T00:31:05;1.80;99.90
29453;DHT22;16424;50.956;5.320;2023-03-02T00:33:31;1.60;99.90
29453;DHT22;16424;50.956;5.320;2023-03-02T00:35:57;1.60;99.90
29453;DHT22;16424;50.956;5.320;2023-03-02T00:38:23;1.50;99.90
29453;DHT22;16424;50.956;5.320;2023-03-02T00:40:49;1.50;99.90
29453;DHT22;16424;50.956;5.320;2023-03-02T00:43:15;1.60;99.90
29453;DHT22;16424;50.956;5.320;2023-03-02T00:45:41;1.60;99.90
29453;DHT22;16424;50.956;5.320;2023-03-02T00:48:07;1.70;99.90
29453;DHT22;16424;50.956;5.320;2023-03-02T00:50:33;1.70;99.90
29453;DHT22;16424;50.956;5.320;2023-03-02T00:53:06;1.70;99.90
29453;DHT22;16424;50.956;5.320;2023-03-02T00:55:32;1.70;99.90
29453;DHT22;16424;50.956;5.320;2023-03-02T00:57:58;1.70;99.90
29453;DHT22;16424;50.956;5.320;2023-03-02T01:00:24;1.60;99.90
29453;DHT22;16424;50.956;5.320;2023-03-02T01:02:52;1.70;99.90
29453;DHT22;16424;50.956;5.320;2023-03-02T01:05:18;1.70;99.90
29453;DHT22;16424;50.956;5.320;2023-03-02T01:07:44;1.70;99.90
29453;DHT22;16424;50.956;5.320;2023-03-02T01:10:10;1.80;99.90
29453;DHT22;16424;50.956;5.320;2023-03-02T01:12:36;1.90;99.90
29453;DHT22;16424;50.956;5.320;2023-03-02T01:15:02;1.90;99.90
29453;DHT22;16424;50.956;5.320;2023-03-02T01:17:28;1.90;99.90
29453;DHT22;16424;50.956;5.320;2023-03-02T01:19:54;2.00;99.90
29453;DHT22;16424;50.956;5.320;2023-03-02T01:22:21;2.00;99.90
29453;DHT22;16424;50.956;5.320;2023-03-02T01:24:47;2.10;99.90
29453;DHT22;16424;50.956;5.320;2023-03-02T01:27:13;2.10;99.90
29453;DHT22;16424;50.956;5.320;2023-03-02T01:29:39;2.10;99.90
29453;DHT22;16424;50.956;5.320;2023-03-02T01:32:05;2.10;99.90
29453;DHT22;16424;50.956;5.320;2023-03-02T01:34:31;2.10;99.90
29453;DHT22;16424;50.956;5.320;2023-03-02T01:36:56;2.10;99.90
29453;DHT22;16424;50.956;5.320;2023-03-02T01:39:22;2.20;99.90
29453;DHT22;16424;50.956;5.320;2023-03-02T01:41:49;2.20;99.90
29453;DHT22;16424;50.956;5.320;2023-03-02T01:47:01;2.10;99.90
29453;DHT22;16424;50.956;5.320;2023-03-02T01:49:27;2.10;99.90
29453;DHT22;16424;50.956;5.320;2023-03-02T01:51:53;2.10;99.90
29453;DHT22;16424;50.956;5.320;2023-03-02T01:54:21;2.20;99.90
29453;DHT22;16424;50.956;5.320;2023-03-02T01:56:51;2.10;99.90
29453;DHT22;16424;50.956;5.320;2023-03-02T01:59:19;2.00;99.90
29453;DHT22;16424;50.956;5.320;2023-03-02T02:01:49;2.00;99.90
29453;DHT22;16424;50.956;5.320;2023-03-02T02:04:16;2.00;99.90
29453;DHT22;16424;50.956;5.320;2023-03-02T02:06:58;1.90;99.90
29453;DHT22;16424;50.956;5.320;2023-03-02T02:09:25;1.80;99.90
29453;DHT22;16424;50.956;5.320;2023-03-02T02:11:52;1.80;99.90
29453;DHT22;16424;50.956;5.320;2023-03-02T02:14:18;1.70;99.90
29453;DHT22;16424;50.956;5.320;2023-03-02T02:16:44;1.70;99.90
29453;DHT22;16424;50.956;5.320;2023-03-02T02:19:23;1.60;99.90
29453;DHT22;16424;50.956;5.320;2023-03-02T02:21:51;1.70;99.90
29453;DHT22;16424;50.956;5.320;2023-03-02T02:24:23;1.60;99.90
29453;DHT22;16424;50.956;5.320;2023-03-02T02:26:54;1.60;99.90
29453;DHT22;16424;50.956;5.320;2023-03-02T02:29:29;1.60;99.90
29453;DHT22;16424;50.956;5.320;2023-03-02T02:32:01;1.60;99.90
29453;DHT22;16424;50.956;5.320;2023-03-02T02:35:09;1.50;99.90
29453;DHT22;16424;50.956;5.320;2023-03-02T02:37:37;1.50;99.90
29453;DHT22;16424;50.956;5.320;2023-03-02T02:40:04;1.50;99.90
29453;DHT22;16424;50.956;5.320;2023-03-02T02:42:37;1.40;99.90
29453;DHT22;16424;50.956;5.320;2023-03-02T02:45:18;1.30;99.90
29453;DHT22;16424;50.956;5.320;2023-03-02T02:47:45;1.30;99.90
29453;DHT22;16424;50.956;5.320;2023-03-02T02:50:24;1.30;99.90
29453;DHT22;16424;50.956;5.320;2023-03-02T02:52:56;1.30;99.90
29453;DHT22;16424;50.956;5.320;2023-03-02T02:55:25;1.40;99.90
29453;DHT22;16424;50.956;5.320;2023-03-02T02:57:53;1.50;99.90
29453;DHT22;16424;50.956;5.320;2023-03-02T03:00:21;1.60;99.90
29453;DHT22;16424;50.956;5.320;2023-03-02T03:02:52;1.60;99.90
29453;DHT22;16424;50.956;5.320;2023-03-02T03:05:20;1.50;99.90
29453;DHT22;16424;50.956;5.320;2023-03-02T03:07:46;1.60;99.90
29453;DHT22;16424;50.956;5.320;2023-03-02T03:12:45;1.70;99.90
29453;DHT22;16424;50.956;5.320;2023-03-02T03:15:11;1.70;99.90
29453;DHT22;16424;50.956;5.320;2023-03-02T03:17:38;1.50;99.90
29453;DHT22;16424;50.956;5.320;2023-03-02T03:20:04;1.50;99.90
29453;DHT22;16424;50.956;5.320;2023-03-02T03:22:36;1.50;99.90
29453;DHT22;16424;50.956;5.320;2023-03-02T03:25:03;1.40;99.90
29453;DHT22;16424;50.956;5.320;2023-03-02T03:27:29;1.30;99.90
29453;DHT22;16424;50.956;5.320;2023-03-02T03:29:54;1.30;99.90
29453;DHT22;16424;50.956;5.320;2023-03-02T03:32:21;1.40;99.90
29453;DHT22;16424;50.956;5.320;2023-03-02T03:34:46;1.40;99.90
29453;DHT22;16424;50.956;5.320;2023-03-02T03:37:16;1.40;99.90
29453;DHT22;16424;50.956;5.320;2023-03-02T03:39:43;1.50;99.90
29453;DHT22;16424;50.956;5.320;2023-03-02T03:42:09;1.30;99.90
29453;DHT22;16424;50.956;5.320;2023-03-02T03:44:34;1.30;99.90
29453;DHT22;16424;50.956;5.320;2023-03-02T03:47:00;1.20;99.90
29453;DHT22;16424;50.956;5.320;2023-03-02T03:49:26;1.20;99.90
29453;DHT22;16424;50.956;5.320;2023-03-02T03:51:52;1.20;99.90
29453;DHT22;16424;50.956;5.320;2023-03-02T03:54:18;1.10;99.90
29453;DHT22;16424;50.956;5.320;2023-03-02T03:56:48;1.10;99.90
29453;DHT22;16424;50.956;5.320;2023-03-02T03:59:18;1.10;99.90
29453;DHT22;16424;50.956;5.320;2023-03-02T04:01:55;1.10;99.90
29453;DHT22;16424;50.956;5.320;2023-03-02T04:04:25;1.20;99.90
29453;DHT22;16424;50.956;5.320;2023-03-02T04:06:52;1.20;99.90
29453;DHT22;16424;50.956;5.320;2023-03-02T04:09:18;1.10;99.90
29453;DHT22;16424;50.956;5.320;2023-03-02T04:11:46;1.20;99.90
29453;DHT22;16424;50.956;5.320;2023-03-02T04:14:12;1.10;99.90
29453;DHT22;16424;50.956;5.320;2023-03-02T04:16:39;1.00;99.90
29453;DHT22;16424;50.956;5.320;2023-03-02T04:19:05;1.00;99.90
29453;DHT22;16424;50.956;5.320;2023-03-02T04:21:37;1.00;99.90
29453;DHT22;16424;50.956;5.320;2023-03-02T04:24:04;1.00;99.90
29453;DHT22;16424;50.956;5.320;2023-03-02T04:26:30;1.00;99.90
29453;DHT22;16424;50.956;5.320;2023-03-02T04:28:56;1.00;99.90
29453;DHT22;16424;50.956;5.320;2023-03-02T04:31:22;0.90;99.90
29453;DHT22;16424;50.956;5.320;2023-03-02T04:33:48;0.90;99.90
29453;DHT22;16424;50.956;5.320;2023-03-02T04:36:13;0.80;99.90
29453;DHT22;16424;50.956;5.320;2023-03-02T04:38:39;0.70;99.90
29453;DHT22;16424;50.956;5.320;2023-03-02T04:41:04;0.70;99.90
29453;DHT22;16424;50.956;5.320;2023-03-02T04:43:30;0.70;99.90
29453;DHT22;16424;50.956;5.320;2023-03-02T04:45:56;0.60;99.90
29453;DHT22;16424;50.956;5.320;2023-03-02T04:48:23;0.60;99.90
29453;DHT22;16424;50.956;5.320;2023-03-02T04:50:49;0.60;99.90
29453;DHT22;16424;50.956;5.320;2023-03-02T04:53:14;0.60;99.90
29453;DHT22;16424;50.956;5.320;2023-03-02T04:55:41;0.70;99.90
29453;DHT22;16424;50.956;5.320;2023-03-02T04:58:07;0.70;99.90
29453;DHT22;16424;50.956;5.320;2023-03-02T05:00:33;0.70;99.90
29453;DHT22;16424;50.956;5.320;2023-03-02T05:03:01;0.60;99.90
29453;DHT22;16424;50.956;5.320;2023-03-02T05:05:27;0.60;99.90
29453;DHT22;16424;50.956;5.320;2023-03-02T05:07:53;0.60;99.90
29453;DHT22;16424;50.956;5.320;2023-03-02T05:10:20;0.60;99.90
29453;DHT22;16424;50.956;5.320;2023-03-02T05:12:46;0.50;99.90
29453;DHT22;16424;50.956;5.320;2023-03-02T05:17:58;0.50;99.90
29453;DHT22;16424;50.956;5.320;2023-03-02T05:20:24;0.50;99.90
29453;DHT22;16424;50.956;5.320;2023-03-02T05:22:57;0.60;99.90
29453;DHT22;16424;50.956;5.320;2023-03-02T05:25:25;0.60;99.90
29453;DHT22;16424;50.956;5.320;2023-03-02T05:27:51;0.60;99.90
29453;DHT22;16424;50.956;5.320;2023-03-02T05:30:18;0.70;99.90
29453;DHT22;16424;50.956;5.320;2023-03-02T05:32:44;0.70;99.90
29453;DHT22;16424;50.956;5.320;2023-03-02T05:35:11;0.70;99.90
29453;DHT22;16424;50.956;5.320;2023-03-02T05:37:36;0.60;99.90
29453;DHT22;16424;50.956;5.320;2023-03-02T05:40:10;0.50;99.90
29453;DHT22;16424;50.956;5.320;2023-03-02T05:42:36;0.50;99.90
29453;DHT22;16424;50.956;5.320;2023-03-02T05:45:04;0.40;99.90
29453;DHT22;16424;50.956;5.320;2023-03-02T05:47:30;0.50;99.90
29453;DHT22;16424;50.956;5.320;2023-03-02T05:49:56;0.40;99.90
29453;DHT22;16424;50.956;5.320;2023-03-02T05:52:21;0.30;99.90
29453;DHT22;16424;50.956;5.320;2023-03-02T05:54:47;0.30;99.90
29453;DHT22;16424;50.956;5.320;2023-03-02T05:57:13;0.30;99.90
29453;DHT22;16424;50.956;5.320;2023-03-02T05:59:38;0.30;99.90
29453;DHT22;16424;50.956;5.320;2023-03-02T06:02:04;0.40;99.90
29453;DHT22;16424;50.956;5.320;2023-03-02T06:04:30;0.40;99.90
29453;DHT22;16424;50.956;5.320;2023-03-02T06:06:55;0.40;99.90
29453;DHT22;16424;50.956;5.320;2023-03-02T06:09:21;0.40;99.90
29453;DHT22;16424;50.956;5.320;2023-03-02T06:11:47;0.50;99.90
29453;DHT22;16424;50.956;5.320;2023-03-02T06:14:13;0.50;99.90
29453;DHT22;16424;50.956;5.320;2023-03-02T06:16:39;0.50;99.90
29453;DHT22;16424;50.956;5.320;2023-03-02T06:19:05;0.40;99.90
29453;DHT22;16424;50.956;5.320;2023-03-02T06:21:31;0.60;99.90
29453;DHT22;16424;50.956;5.320;2023-03-02T06:23:57;0.60;99.90
29453;DHT22;16424;50.956;5.320;2023-03-02T06:26:22;0.50;99.90
29453;DHT22;16424;50.956;5.320;2023-03-02T06:28:48;0.50;99.90
29453;DHT22;16424;50.956;5.320;2023-03-02T06:31:14;0.40;99.90
29453;DHT22;16424;50.956;5.320;2023-03-02T06:33:39;0.40;99.90
29453;DHT22;16424;50.956;5.320;2023-03-02T06:36:05;0.40;99.90
29453;DHT22;16424;50.956;5.320;2023-03-02T06:38:31;0.40;99.90
29453;DHT22;16424;50.956;5.320;2023-03-02T06:40:56;0.50;99.90
29453;DHT22;16424;50.956;5.320;2023-03-02T06:43:22;0.50;99.90
29453;DHT22;16424;50.956;5.320;2023-03-02T06:45:48;0.60;99.90
29453;DHT22;16424;50.956;5.320;2023-03-02T06:48:15;0.80;99.90
29453;DHT22;16424;50.956;5.320;2023-03-02T06:50:41;1.00;99.90
29453;DHT22;16424;50.956;5.320;2023-03-02T06:53:06;1.30;99.90
29453;DHT22;16424;50.956;5.320;2023-03-02T06:55:32;1.60;99.90
29453;DHT22;16424;50.956;5.320;2023-03-02T06:57:58;1.90;99.90
29453;DHT22;16424;50.956;5.320;2023-03-02T07:00:24;2.00;99.90
29453;DHT22;16424;50.956;5.320;2023-03-02T07:02:53;2.30;99.90
29453;DHT22;16424;50.956;5.320;2023-03-02T07:05:20;2.30;99.90
29453;DHT22;16424;50.956;5.320;2023-03-02T07:07:46;2.30;99.90
29453;DHT22;16424;50.956;5.320;2023-03-02T07:10:12;2.40;99.90
29453;DHT22;16424;50.956;5.320;2023-03-02T07:12:38;2.60;99.90
29453;DHT22;16424;50.956;5.320;2023-03-02T07:15:05;2.90;99.90
29453;DHT22;16424;50.956;5.320;2023-03-02T07:17:35;3.10;99.90
29453;DHT22;16424;50.956;5.320;2023-03-02T07:20:06;3.50;99.90
29453;DHT22;16424;50.956;5.320;2023-03-02T07:22:32;4.10;99.90
29453;DHT22;16424;50.956;5.320;2023-03-02T07:24:57;4.20;99.90
29453;DHT22;16424;50.956;5.320;2023-03-02T07:27:23;4.10;99.90
29453;DHT22;16424;50.956;5.320;2023-03-02T07:29:49;3.90;99.90
29453;DHT22;16424;50.956;5.320;2023-03-02T07:32:15;3.90;99.90
29453;DHT22;16424;50.956;5.320;2023-03-02T07:34:40;4.00;99.90
29453;DHT22;16424;50.956;5.320;2023-03-02T07:37:06;3.90;99.90
29453;DHT22;16424;50.956;5.320;2023-03-02T07:39:32;3.70;99.90
29453;DHT22;16424;50.956;5.320;2023-03-02T07:41:59;4.00;99.90
29453;DHT22;16424;50.956;5.320;2023-03-02T07:44:25;4.50;99.90
29453;DHT22;16424;50.956;5.320;2023-03-02T07:46:51;4.60;99.90
29453;DHT22;16424;50.956;5.320;2023-03-02T07:49:16;5.10;99.90
29453;DHT22;16424;50.956;5.320;2023-03-02T07:51:42;5.30;99.90
29453;DHT22;16424;50.956;5.320;2023-03-02T07:54:08;5.30;99.90
29453;DHT22;16424;50.956;5.320;2023-03-02T07:56:33;4.80;99.90
29453;DHT22;16424;50.956;5.320;2023-03-02T07:58:59;4.90;99.90
29453;DHT22;16424;50.956;5.320;2023-03-02T08:01:25;5.10;99.90
29453;DHT22;16424;50.956;5.320;2023-03-02T08:03:51;5.00;99.90
29453;DHT22;16424;50.956;5.320;2023-03-02T08:06:16;5.00;99.90
29453;DHT22;16424;50.956;5.320;2023-03-02T08:08:42;4.80;99.90
29453;DHT22;16424;50.956;5.320;2023-03-02T08:11:10;5.20;99.90
29453;DHT22;16424;50.956;5.320;2023-03-02T08:13:36;5.40;99.90
29453;DHT22;16424;50.956;5.320;2023-03-02T08:16:04;5.70;99.90
29453;DHT22;16424;50.956;5.320;2023-03-02T08:18:30;6.10;99.90
29453;DHT22;16424;50.956;5.320;2023-03-02T08:20:56;6.10;99.90
29453;DHT22;16424;50.956;5.320;2023-03-02T08:23:22;6.30;99.90
29453;DHT22;16424;50.956;5.320;2023-03-02T08:25:48;6.30;99.90
29453;DHT22;16424;50.956;5.320;2023-03-02T08:28:14;6.50;99.90
29453;DHT22;16424;50.956;5.320;2023-03-02T08:30:40;6.30;99.90
29453;DHT22;16424;50.956;5.320;2023-03-02T08:33:05;6.90;99.90
29453;DHT22;16424;50.956;5.320;2023-03-02T08:35:31;7.00;99.90
29453;DHT22;16424;50.956;5.320;2023-03-02T08:37:57;7.10;99.90
29453;DHT22;16424;50.956;5.320;2023-03-02T08:40:24;7.50;99.90
29453;DHT22;16424;50.956;5.320;2023-03-02T08:42:50;7.50;99.90
29453;DHT22;16424;50.956;5.320;2023-03-02T08:45:22;6.20;99.90
29453;DHT22;16424;50.956;5.320;2023-03-02T08:47:48;6.00;99.90
29453;DHT22;16424;50.956;5.320;2023-03-02T08:50:14;5.80;99.90
29453;DHT22;16424;50.956;5.320;2023-03-02T08:52:39;6.10;99.90
29453;DHT22;16424;50.956;5.320;2023-03-02T08:55:06;6.60;99.90
29453;DHT22;16424;50.956;5.320;2023-03-02T08:57:32;6.40;99.90
29453;DHT22;16424;50.956;5.320;2023-03-02T08:59:59;6.50;99.90
29453;DHT22;16424;50.956;5.320;2023-03-02T09:02:24;6.20;99.90
29453;DHT22;16424;50.956;5.320;2023-03-02T09:04:50;6.20;99.90
29453;DHT22;16424;50.956;5.320;2023-03-02T09:07:16;6.40;99.90
29453;DHT22;16424;50.956;5.320;2023-03-02T09:09:42;6.90;99.90
29453;DHT22;16424;50.956;5.320;2023-03-02T09:12:08;7.30;99.90
29453;DHT22;16424;50.956;5.320;2023-03-02T09:14:34;7.30;99.90
29453;DHT22;16424;50.956;5.320;2023-03-02T09:16:59;7.40;99.90
29453;DHT22;16424;50.956;5.320;2023-03-02T09:19:25;7.40;99.90
29453;DHT22;16424;50.956;5.320;2023-03-02T09:21:51;7.30;99.90
29453;DHT22;16424;50.956;5.320;2023-03-02T09:24:17;6.30;99.90
29453;DHT22;16424;50.956;5.320;2023-03-02T09:26:42;6.20;99.90
29453;DHT22;16424;50.956;5.320;2023-03-02T09:29:08;6.80;99.90
29453;DHT22;16424;50.956;5.320;2023-03-02T09:31:35;7.40;99.90
29453;DHT22;16424;50.956;5.320;2023-03-02T09:34:01;7.80;99.90
29453;DHT22;16424;50.956;5.320;2023-03-02T09:36:27;8.10;99.90
29453;DHT22;16424;50.956;5.320;2023-03-02T09:38:53;8.20;99.90
29453;DHT22;16424;50.956;5.320;2023-03-02T09:46:49;7.90;99.90
29453;DHT22;16424;50.956;5.320;2023-03-02T09:49:38;8.10;99.90
29453;DHT22;16424;50.956;5.320;2023-03-02T09:52:32;7.80;99.90
29453;DHT22;16424;50.956;5.320;2023-03-02T09:55:05;7.60;99.90
29453;DHT22;16424;50.956;5.320;2023-03-02T09:57:36;8.00;99.90
29453;DHT22;16424;50.956;5.320;2023-03-02T10:02:53;8.00;99.90
29453;DHT22;16424;50.956;5.320;2023-03-02T10:05:25;7.90;99.90
29453;DHT22;16424;50.956;5.320;2023-03-02T10:07:51;7.90;99.90
29453;DHT22;16424;50.956;5.320;2023-03-02T10:18:57;7.20;99.90
29453;DHT22;16424;50.956;5.320;2023-03-02T10:26:47;6.80;99.90
29453;DHT22;16424;50.956;5.320;2023-03-02T10:34:35;7.10;99.90
29453;DHT22;16424;50.956;5.320;2023-03-02T10:37:04;7.10;99.90
29453;DHT22;16424;50.956;5.320;2023-03-02T10:39:35;7.10;99.90
29453;DHT22;16424;50.956;5.320;2023-03-02T10:42:06;7.10;99.90
29453;DHT22;16424;50.956;5.320;2023-03-02T10:44:38;7.00;99.90
29453;DHT22;16424;50.956;5.320;2023-03-02T10:47:05;7.00;99.90
29453;DHT22;16424;50.956;5.320;2023-03-02T10:49:36;7.10;99.90
29453;DHT22;16424;50.956;5.320;2023-03-02T10:52:13;7.20;99.90
29453;DHT22;16424;50.956;5.320;2023-03-02T10:54:39;7.40;99.90
29453;DHT22;16424;50.956;5.320;2023-03-02T10:57:35;7.20;99.90
29453;DHT22;16424;50.956;5.320;2023-03-02T11:02:57;7.10;99.90
29453;DHT22;16424;50.956;5.320;2023-03-02T11:05:30;7.00;99.90
29453;DHT22;16424;50.956;5.320;2023-03-02T11:12:58;7.60;99.90
29453;DHT22;16424;50.956;5.320;2023-03-02T11:15:35;7.60;99.90
29453;DHT22;16424;50.956;5.320;2023-03-02T11:20:34;7.70;99.90
29453;DHT22;16424;50.956;5.320;2023-03-02T11:25:49;8.00;99.90
29453;DHT22;16424;50.956;5.320;2023-03-02T11:28:21;8.10;99.90
29453;DHT22;16424;50.956;5.320;2023-03-02T11:30:52;8.00;99.90
29453;DHT22;16424;50.956;5.320;2023-03-02T11:33:33;8.10;99.90
29453;DHT22;16424;50.956;5.320;2023-03-02T11:36:23;7.90;99.90
29453;DHT22;16424;50.956;5.320;2023-03-02T11:38:54;8.00;99.90
29453;DHT22;16424;50.956;5.320;2023-03-02T11:41:27;8.00;99.90
29453;DHT22;16424;50.956;5.320;2023-03-02T11:43:55;8.20;99.90
29453;DHT22;16424;50.956;5.320;2023-03-02T11:46:26;8.20;99.90
29453;DHT22;16424;50.956;5.320;2023-03-02T11:48:54;8.30;99.90
29453;DHT22;16424;50.956;5.320;2023-03-02T11:51:33;8.40;99.90
29453;DHT22;16424;50.956;5.320;2023-03-02T11:54:05;8.60;99.90
29453;DHT22;16424;50.956;5.320;2023-03-02T11:56:37;8.70;99.90
29453;DHT22;16424;50.956;5.320;2023-03-02T11:59:09;8.90;99.90
29453;DHT22;16424;50.956;5.320;2023-03-02T12:01:35;9.10;99.90
29453;DHT22;16424;50.956;5.320;2023-03-02T12:04:29;9.10;99.90
29453;DHT22;16424;50.956;5.320;2023-03-02T12:06:57;8.90;99.90
29453;DHT22;16424;50.956;5.320;2023-03-02T12:12:14;9.00;99.90
29453;DHT22;16424;50.956;5.320;2023-03-02T12:14:41;9.20;99.90
29453;DHT22;16424;50.956;5.320;2023-03-02T12:19:54;9.30;99.90
29453;DHT22;16424;50.956;5.320;2023-03-02T12:22:30;9.30;99.90
29453;DHT22;16424;50.956;5.320;2023-03-02T12:25:06;9.30;99.90
29453;DHT22;16424;50.956;5.320;2023-03-02T12:27:35;9.30;99.90
29453;DHT22;16424;50.956;5.320;2023-03-02T12:32:33;9.20;99.90
29453;DHT22;16424;50.956;5.320;2023-03-02T12:37:55;9.30;99.90
29453;DHT22;16424;50.956;5.320;2023-03-02T12:40:52;9.60;99.90
29453;DHT22;16424;50.956;5.320;2023-03-02T12:43:34;9.80;99.90
29453;DHT22;16424;50.956;5.320;2023-03-02T12:46:32;9.80;99.90
29453;DHT22;16424;50.956;5.320;2023-03-02T12:51:55;9.60;99.90
29453;DHT22;16424;50.956;5.320;2023-03-02T12:54:26;9.60;99.90
29453;DHT22;16424;50.956;5.320;2023-03-02T12:59:36;10.00;99.90
29453;DHT22;16424;50.956;5.320;2023-03-02T13:02:32;9.80;99.90
29453;DHT22;16424;50.956;5.320;2023-03-02T13:05:01;9.80;99.90
29453;DHT22;16424;50.956;5.320;2023-03-02T13:07:55;9.70;99.90
29453;DHT22;16424;50.956;5.320;2023-03-02T13:10:35;9.80;99.90
29453;DHT22;16424;50.956;5.320;2023-03-02T13:13:11;10.10;99.90
29453;DHT22;16424;50.956;5.320;2023-03-02T13:15:47;10.30;99.90
29453;DHT22;16424;50.956;5.320;2023-03-02T13:18:13;10.10;99.90
29453;DHT22;16424;50.956;5.320;2023-03-02T13:20:39;10.10;99.90
29453;DHT22;16424;50.956;5.320;2023-03-02T13:23:05;10.20;99.90
29453;DHT22;16424;50.956;5.320;2023-03-02T13:25:31;10.20;99.90
29453;DHT22;16424;50.956;5.320;2023-03-02T13:27:59;10.40;99.90
29453;DHT22;16424;50.956;5.320;2023-03-02T13:30:30;10.70;99.90
29453;DHT22;16424;50.956;5.320;2023-03-02T13:33:00;10.50;99.90
29453;DHT22;16424;50.956;5.320;2023-03-02T13:35:29;10.60;99.90
29453;DHT22;16424;50.956;5.320;2023-03-02T13:38:02;10.60;99.90
29453;DHT22;16424;50.956;5.320;2023-03-02T13:40:33;10.60;99.90
29453;DHT22;16424;50.956;5.320;2023-03-02T13:42:58;10.40;99.90
29453;DHT22;16424;50.956;5.320;2023-03-02T13:45:29;10.20;99.90
29453;DHT22;16424;50.956;5.320;2023-03-02T13:48:11;10.40;99.90
29453;DHT22;16424;50.956;5.320;2023-03-02T13:50:39;10.50;99.90
29453;DHT22;16424;50.956;5.320;2023-03-02T13:53:05;10.80;99.90
29453;DHT22;16424;50.956;5.320;2023-03-02T13:55:32;11.00;99.90
29453;DHT22;16424;50.956;5.320;2023-03-02T13:57:59;11.00;99.90
29453;DHT22;16424;50.956;5.320;2023-03-02T14:00:31;11.00;99.90
29453;DHT22;16424;50.956;5.320;2023-03-02T14:02:58;11.00;99.90
29453;DHT22;16424;50.956;5.320;2023-03-02T14:05:25;11.00;99.90
29453;DHT22;16424;50.956;5.320;2023-03-02T14:07:51;11.10;99.90
29453;DHT22;16424;50.956;5.320;2023-03-02T14:10:18;11.00;99.90
29453;DHT22;16424;50.956;5.320;2023-03-02T14:13:03;10.90;99.90
29453;DHT22;16424;50.956;5.320;2023-03-02T14:15:31;10.70;99.90
29453;DHT22;16424;50.956;5.320;2023-03-02T14:17:57;11.00;99.90
29453;DHT22;16424;50.956;5.320;2023-03-02T14:20:22;11.10;99.90
29453;DHT22;16424;50.956;5.320;2023-03-02T14:22:48;11.40;99.90
29453;DHT22;16424;50.956;5.320;2023-03-02T14:25:15;11.70;99.90
29453;DHT22;16424;50.956;5.320;2023-03-02T14:27:41;11.30;99.90
29453;DHT22;16424;50.956;5.320;2023-03-02T14:30:18;11.30;99.90
29453;DHT22;16424;50.956;5.320;2023-03-02T14:32:44;11.00;99.90
29453;DHT22;16424;50.956;5.320;2023-03-02T14:35:11;10.90;99.90
29453;DHT22;16424;50.956;5.320;2023-03-02T14:37:44;10.90;99.90
29453;DHT22;16424;50.956;5.320;2023-03-02T14:40:22;10.80;99.90
29453;DHT22;16424;50.956;5.320;2023-03-02T14:42:48;10.90;99.90
29453;DHT22;16424;50.956;5.320;2023-03-02T14:45:16;11.00;99.90
29453;DHT22;16424;50.956;5.320;2023-03-02T14:47:43;11.00;99.90
29453;DHT22;16424;50.956;5.320;2023-03-02T14:50:09;11.10;99.90
29453;DHT22;16424;50.956;5.320;2023-03-02T14:52:39;11.00;99.90
29453;DHT22;16424;50.956;5.320;2023-03-02T14:55:13;10.90;99.90
29453;DHT22;16424;50.956;5.320;2023-03-02T14:57:39;11.00;99.90
29453;DHT22;16424;50.956;5.320;2023-03-02T15:00:06;11.10;99.90
29453;DHT22;16424;50.956;5.320;2023-03-02T15:02:33;11.10;99.90
29453;DHT22;16424;50.956;5.320;2023-03-02T15:04:59;10.90;99.90
29453;DHT22;16424;50.956;5.320;2023-03-02T15:07:26;11.00;99.90
29453;DHT22;16424;50.956;5.320;2023-03-02T15:09:52;11.00;99.90
29453;DHT22;16424;50.956;5.320;2023-03-02T15:12:18;11.10;99.90
29453;DHT22;16424;50.956;5.320;2023-03-02T15:14:44;11.00;99.90
29453;DHT22;16424;50.956;5.320;2023-03-02T15:17:10;10.90;99.90
29453;DHT22;16424;50.956;5.320;2023-03-02T15:19:35;10.90;99.90
29453;DHT22;16424;50.956;5.320;2023-03-02T15:22:01;10.70;99.90
29453;DHT22;16424;50.956;5.320;2023-03-02T15:24:26;10.70;99.90
29453;DHT22;16424;50.956;5.320;2023-03-02T15:26:52;10.80;99.90
29453;DHT22;16424;50.956;5.320;2023-03-02T15:29:19;10.80;99.90
29453;DHT22;16424;50.956;5.320;2023-03-02T15:31:44;10.50;99.90
29453;DHT22;16424;50.956;5.320;2023-03-02T15:34:10;10.30;99.90
29453;DHT22;16424;50.956;5.320;2023-03-02T15:36:36;10.30;99.90
29453;DHT22;16424;50.956;5.320;2023-03-02T15:39:02;10.20;99.90
29453;DHT22;16424;50.956;5.320;2023-03-02T15:41:28;10.20;99.90
29453;DHT22;16424;50.956;5.320;2023-03-02T15:43:54;10.30;99.90
29453;DHT22;16424;50.956;5.320;2023-03-02T15:46:21;10.10;99.90
29453;DHT22;16424;50.956;5.320;2023-03-02T15:48:48;10.10;99.90
29453;DHT22;16424;50.956;5.320;2023-03-02T15:51:13;10.20;99.90
29453;DHT22;16424;50.956;5.320;2023-03-02T15:53:39;10.20;99.90
29453;DHT22;16424;50.956;5.320;2023-03-02T15:56:11;10.10;99.90
29453;DHT22;16424;50.956;5.320;2023-03-02T15:58:38;10.10;99.90
29453;DHT22;16424;50.956;5.320;2023-03-02T16:01:09;10.20;99.90
29453;DHT22;16424;50.956;5.320;2023-03-02T16:03:36;10.40;99.90
29453;DHT22;16424;50.956;5.320;2023-03-02T16:06:03;10.40;99.90
29453;DHT22;16424;50.956;5.320;2023-03-02T16:08:28;10.20;99.90
29453;DHT22;16424;50.956;5.320;2023-03-02T16:10:59;10.10;99.90
29453;DHT22;16424;50.956;5.320;2023-03-02T16:13:24;10.00;99.90
29453;DHT22;16424;50.956;5.320;2023-03-02T16:15:50;9.90;99.90
29453;DHT22;16424;50.956;5.320;2023-03-02T16:18:16;9.80;99.90
29453;DHT22;16424;50.956;5.320;2023-03-02T16:20:42;9.80;99.90
29453;DHT22;16424;50.956;5.320;2023-03-02T16:23:07;10.00;99.90
29453;DHT22;16424;50.956;5.320;2023-03-02T16:25:35;10.10;99.90
29453;DHT22;16424;50.956;5.320;2023-03-02T16:28:05;10.10;99.90
29453;DHT22;16424;50.956;5.320;2023-03-02T16:30:32;10.00;99.90
29453;DHT22;16424;50.956;5.320;2023-03-02T16:33:03;10.00;99.90
29453;DHT22;16424;50.956;5.320;2023-03-02T16:35:30;10.10;99.90
29453;DHT22;16424;50.956;5.320;2023-03-02T16:37:56;10.00;99.90
29453;DHT22;16424;50.956;5.320;2023-03-02T16:40:22;10.00;99.90
29453;DHT22;16424;50.956;5.320;2023-03-02T16:42:48;10.10;99.90
29453;DHT22;16424;50.956;5.320;2023-03-02T16:45:15;10.00;99.90
29453;DHT22;16424;50.956;5.320;2023-03-02T16:47:41;9.90;99.90
29453;DHT22;16424;50.956;5.320;2023-03-02T16:50:11;9.90;99.90
29453;DHT22;16424;50.956;5.320;2023-03-02T16:52:37;9.90;99.90
29453;DHT22;16424;50.956;5.320;2023-03-02T16:55:06;9.90;99.90
29453;DHT22;16424;50.956;5.320;2023-03-02T16:57:32;9.90;99.90